JST508 YMML-YSSY
Flight info
| Callsign | JST508 |
|---|---|
| Flight time | 1h 4m |
| Altitude | 39000 |
| Route | ML H129 DOSEL Y59 RIVET |
| Aircraft | A21N/M-SDE2E3FGHIRWXY/LB1 |
Departure
| Time | 2026-05-05 23:33 |
|---|---|
| Airport | Melbourne Airport (YMML) |
Arrival
| Time | 2026-05-06 00:37 |
|---|---|
| Airport | Sydney Kingsford Smith International Airport (YSSY) |
| Time | Latitude | Longitude | Altitude | Speed | Heading |
|---|---|---|---|---|---|
| 2026-05-05 23:02 | -37.67535 | 144.84695 | 384 ft | 0 kts | 172° |
| 2026-05-05 23:23 | -37.67515 | 144.84692 | 385 ft | 4 kts | 171° |
| 2026-05-05 23:24 | -37.67488 | 144.84686 | 385 ft | 4 kts | 171° |
| 2026-05-05 23:24 | -37.67462 | 144.84682 | 386 ft | 4 kts | 183° |
| 2026-05-05 23:24 | -37.67442 | 144.84689 | 387 ft | 4 kts | 243° |
| 2026-05-05 23:24 | -37.67441 | 144.84688 | 387 ft | 4 kts | 261° |
| 2026-05-05 23:25 | -37.67445 | 144.84654 | 386 ft | 4 kts | 261° |
| 2026-05-05 23:25 | -37.67446 | 144.84643 | 386 ft | 2 kts | 261° |
| 2026-05-05 23:28 | -37.67447 | 144.84637 | 386 ft | 2 kts | 261° |
| 2026-05-05 23:28 | -37.67449 | 144.84615 | 386 ft | 7 kts | 261° |
| 2026-05-05 23:28 | -37.67479 | 144.84551 | 384 ft | 10 kts | 207° |
| 2026-05-05 23:28 | -37.67561 | 144.84553 | 382 ft | 13 kts | 171° |
| 2026-05-05 23:29 | -37.67661 | 144.84572 | 378 ft | 15 kts | 171° |
| 2026-05-05 23:29 | -37.67704 | 144.84580 | 377 ft | 15 kts | 172° |
| 2026-05-05 23:29 | -37.67756 | 144.84590 | 374 ft | 15 kts | 172° |
| 2026-05-05 23:29 | -37.67802 | 144.84591 | 372 ft | 6 kts | 199° |
| 2026-05-05 23:30 | -37.67824 | 144.84537 | 370 ft | 8 kts | 261° |
| 2026-05-05 23:30 | -37.67834 | 144.84450 | 369 ft | 12 kts | 262° |
| 2026-05-05 23:30 | -37.67848 | 144.84327 | 368 ft | 17 kts | 262° |
| 2026-05-05 23:30 | -37.67867 | 144.84172 | 367 ft | 15 kts | 261° |
| 2026-05-05 23:31 | -37.67881 | 144.84051 | 364 ft | 14 kts | 262° |
| 2026-05-05 23:31 | -37.67885 | 144.83979 | 367 ft | 7 kts | 294° |
| 2026-05-05 23:31 | -37.67858 | 144.83963 | 362 ft | 0 kts | 352° |
| 2026-05-05 23:32 | -37.67851 | 144.83962 | 363 ft | 3 kts | 352° |
| 2026-05-05 23:32 | -37.67776 | 144.83949 | 369 ft | 36 kts | 352° |
| 2026-05-05 23:32 | -37.67266 | 144.83852 | 382 ft | 108 kts | 352° |
| 2026-05-05 23:32 | -37.66340 | 144.83680 | 458 ft | 154 kts | 352° |
| 2026-05-05 23:33 | -37.65293 | 144.83471 | 1165 ft | 152 kts | 351° |
| 2026-05-05 23:33 | -37.64232 | 144.83269 | 1858 ft | 157 kts | 349° |
| 2026-05-05 23:33 | -37.63122 | 144.83071 | 2630 ft | 162 kts | 347° |
| 2026-05-05 23:33 | -37.61988 | 144.82835 | 3539 ft | 169 kts | 347° |
| 2026-05-05 23:34 | -37.60749 | 144.82594 | 4300 ft | 190 kts | 348° |
| 2026-05-05 23:34 | -37.59372 | 144.82437 | 5127 ft | 209 kts | 359° |
| 2026-05-05 23:34 | -37.57928 | 144.82961 | 5978 ft | 226 kts | 22° |
| 2026-05-05 23:34 | -37.56482 | 144.83867 | 6797 ft | 238 kts | 23° |
| 2026-05-05 23:35 | -37.54940 | 144.84806 | 7480 ft | 257 kts | 22° |
| 2026-05-05 23:35 | -37.53269 | 144.85827 | 8218 ft | 276 kts | 22° |
| 2026-05-05 23:35 | -37.51506 | 144.86903 | 9217 ft | 285 kts | 22° |
| 2026-05-05 23:35 | -37.49727 | 144.87988 | 10321 ft | 293 kts | 21° |
| 2026-05-05 23:36 | -37.47792 | 144.89163 | 10899 ft | 318 kts | 21° |
| 2026-05-05 23:36 | -37.45752 | 144.90409 | 11433 ft | 341 kts | 22° |
| 2026-05-05 23:36 | -37.43680 | 144.92078 | 12232 ft | 359 kts | 37° |
| 2026-05-05 23:36 | -37.42029 | 144.94498 | 13245 ft | 369 kts | 51° |
| 2026-05-05 23:37 | -37.40551 | 144.97164 | 14242 ft | 373 kts | 52° |
| 2026-05-05 23:37 | -37.39083 | 144.99823 | 15154 ft | 376 kts | 51° |
| 2026-05-05 23:37 | -37.37572 | 145.02527 | 16090 ft | 379 kts | 51° |
| 2026-05-05 23:37 | -37.36042 | 145.05238 | 17017 ft | 382 kts | 51° |
| 2026-05-05 23:38 | -37.34499 | 145.07971 | 17897 ft | 386 kts | 50° |
| 2026-05-05 23:38 | -37.32939 | 145.10723 | 18714 ft | 390 kts | 50° |
| 2026-05-05 23:38 | -37.31355 | 145.13519 | 19426 ft | 394 kts | 50° |
| 2026-05-05 23:38 | -37.29759 | 145.16343 | 20122 ft | 399 kts | 50° |
| 2026-05-05 23:39 | -37.28139 | 145.19200 | 20815 ft | 403 kts | 50° |
| 2026-05-05 23:39 | -37.26500 | 145.22084 | 21499 ft | 408 kts | 50° |
| 2026-05-05 23:39 | -37.24844 | 145.25003 | 22176 ft | 413 kts | 50° |
| 2026-05-05 23:39 | -37.23163 | 145.27960 | 22873 ft | 418 kts | 50° |
| 2026-05-05 23:40 | -37.21463 | 145.30938 | 23571 ft | 422 kts | 50° |
| 2026-05-05 23:40 | -37.19748 | 145.33946 | 24166 ft | 427 kts | 50° |
| 2026-05-05 23:40 | -37.18008 | 145.36992 | 24729 ft | 431 kts | 50° |
| 2026-05-05 23:40 | -37.16249 | 145.40059 | 25279 ft | 436 kts | 50° |
| 2026-05-05 23:41 | -37.14476 | 145.43162 | 25809 ft | 440 kts | 50° |
| 2026-05-05 23:41 | -37.12687 | 145.46293 | 26318 ft | 445 kts | 50° |
| 2026-05-05 23:41 | -37.10869 | 145.49452 | 26830 ft | 449 kts | 50° |
| 2026-05-05 23:41 | -37.09033 | 145.52637 | 27327 ft | 453 kts | 50° |
| 2026-05-05 23:42 | -37.07187 | 145.55860 | 27849 ft | 457 kts | 50° |
| 2026-05-05 23:42 | -37.05328 | 145.59098 | 28343 ft | 460 kts | 50° |
| 2026-05-05 23:42 | -37.03439 | 145.62356 | 28819 ft | 464 kts | 49° |
| 2026-05-05 23:42 | -37.01548 | 145.65628 | 29266 ft | 468 kts | 50° |
| 2026-05-05 23:43 | -36.99630 | 145.68944 | 29686 ft | 472 kts | 50° |
| 2026-05-05 23:43 | -36.97704 | 145.72278 | 30258 ft | 473 kts | 50° |
| 2026-05-05 23:43 | -36.95780 | 145.75610 | 30784 ft | 472 kts | 50° |
| 2026-05-05 23:43 | -36.93862 | 145.78924 | 31307 ft | 471 kts | 49° |
| 2026-05-05 23:44 | -36.91942 | 145.82242 | 31813 ft | 470 kts | 49° |
| 2026-05-05 23:44 | -36.90021 | 145.85552 | 32322 ft | 470 kts | 49° |
| 2026-05-05 23:44 | -36.88107 | 145.88860 | 32824 ft | 469 kts | 49° |
| 2026-05-05 23:44 | -36.86195 | 145.92153 | 33311 ft | 469 kts | 49° |
| 2026-05-05 23:45 | -36.84277 | 145.95444 | 33799 ft | 468 kts | 49° |
| 2026-05-05 23:45 | -36.82362 | 145.98731 | 34281 ft | 468 kts | 48° |
| 2026-05-05 23:45 | -36.80475 | 146.01968 | 34659 ft | 467 kts | 48° |
| 2026-05-05 23:45 | -36.78543 | 146.05281 | 35033 ft | 467 kts | 49° |
| 2026-05-05 23:46 | -36.76658 | 146.08521 | 35390 ft | 467 kts | 49° |
| 2026-05-05 23:46 | -36.74747 | 146.11796 | 35747 ft | 467 kts | 49° |
| 2026-05-05 23:46 | -36.72832 | 146.15065 | 36118 ft | 466 kts | 49° |
| 2026-05-05 23:46 | -36.70923 | 146.18320 | 36490 ft | 466 kts | 49° |
| 2026-05-05 23:47 | -36.69015 | 146.21583 | 36857 ft | 466 kts | 49° |
| 2026-05-05 23:47 | -36.67107 | 146.24843 | 37209 ft | 465 kts | 49° |
| 2026-05-05 23:47 | -36.65196 | 146.28096 | 37551 ft | 465 kts | 49° |
| 2026-05-05 23:47 | -36.63291 | 146.31337 | 37892 ft | 465 kts | 49° |
| 2026-05-05 23:48 | -36.61377 | 146.34577 | 38191 ft | 464 kts | 49° |
| 2026-05-05 23:48 | -36.59464 | 146.37816 | 38484 ft | 464 kts | 49° |
| 2026-05-05 23:48 | -36.57559 | 146.41059 | 38808 ft | 464 kts | 49° |
| 2026-05-05 23:48 | -36.55651 | 146.44294 | 39101 ft | 464 kts | 49° |
| 2026-05-05 23:49 | -36.53740 | 146.47522 | 39279 ft | 465 kts | 49° |
| 2026-05-05 23:49 | -36.51822 | 146.50765 | 39314 ft | 465 kts | 49° |
| 2026-05-05 23:49 | -36.48003 | 146.57262 | 39274 ft | 465 kts | 49° |
| 2026-05-05 23:50 | -36.44194 | 146.63767 | 39271 ft | 466 kts | 49° |
| 2026-05-05 23:50 | -36.40357 | 146.70235 | 39276 ft | 465 kts | 49° |
| 2026-05-05 23:51 | -36.36510 | 146.76696 | 39272 ft | 465 kts | 48° |
| 2026-05-05 23:51 | -36.32647 | 146.83121 | 39272 ft | 464 kts | 48° |
| 2026-05-05 23:52 | -36.28809 | 146.89577 | 39274 ft | 466 kts | 49° |
| 2026-05-05 23:52 | -36.24937 | 146.96001 | 39278 ft | 465 kts | 48° |
| 2026-05-05 23:53 | -36.21049 | 147.02418 | 39266 ft | 465 kts | 48° |
| 2026-05-05 23:53 | -36.17192 | 147.08843 | 39274 ft | 465 kts | 48° |
| 2026-05-05 23:54 | -36.13322 | 147.15261 | 39280 ft | 465 kts | 48° |
| 2026-05-05 23:54 | -36.09469 | 147.21691 | 39278 ft | 465 kts | 49° |
| 2026-05-05 23:55 | -36.05611 | 147.28110 | 39269 ft | 465 kts | 48° |
| 2026-05-05 23:55 | -36.01746 | 147.34496 | 39280 ft | 465 kts | 48° |
| 2026-05-05 23:56 | -35.97859 | 147.40879 | 39273 ft | 465 kts | 48° |
| 2026-05-05 23:56 | -35.93976 | 147.47266 | 39278 ft | 465 kts | 49° |
| 2026-05-05 23:57 | -35.90120 | 147.53598 | 39275 ft | 464 kts | 48° |
| 2026-05-05 23:57 | -35.86232 | 147.59946 | 39274 ft | 464 kts | 48° |
| 2026-05-05 23:58 | -35.82342 | 147.66300 | 39272 ft | 465 kts | 48° |
| 2026-05-05 23:58 | -35.78443 | 147.72660 | 39264 ft | 465 kts | 48° |
| 2026-05-05 23:59 | -35.74552 | 147.79015 | 39268 ft | 465 kts | 48° |
| 2026-05-05 23:59 | -35.70639 | 147.85361 | 39263 ft | 465 kts | 48° |
| 2026-05-06 00:00 | -35.67365 | 147.90678 | 39271 ft | 465 kts | 48° |
| 2026-05-06 00:00 | -35.63468 | 147.97010 | 39261 ft | 464 kts | 48° |
| 2026-05-06 00:01 | -35.59591 | 148.03361 | 39266 ft | 465 kts | 48° |
| 2026-05-06 00:01 | -35.55710 | 148.09649 | 39262 ft | 465 kts | 48° |
| 2026-05-06 00:02 | -35.51808 | 148.15974 | 39250 ft | 465 kts | 48° |
| 2026-05-06 00:02 | -35.47885 | 148.22278 | 39253 ft | 465 kts | 48° |
| 2026-05-06 00:03 | -35.43958 | 148.28577 | 39250 ft | 464 kts | 48° |
| 2026-05-06 00:03 | -35.40047 | 148.34877 | 39250 ft | 465 kts | 48° |
| 2026-05-06 00:04 | -35.36091 | 148.41148 | 39233 ft | 465 kts | 47° |
| 2026-05-06 00:04 | -35.32146 | 148.47409 | 39251 ft | 465 kts | 48° |
| 2026-05-06 00:05 | -35.26238 | 148.56827 | 39257 ft | 464 kts | 47° |
| 2026-05-06 00:06 | -35.22293 | 148.63077 | 39257 ft | 464 kts | 47° |
| 2026-05-06 00:06 | -35.18351 | 148.69348 | 39262 ft | 466 kts | 47° |
| 2026-05-06 00:07 | -35.14404 | 148.75637 | 39277 ft | 466 kts | 47° |
| 2026-05-06 00:07 | -35.10437 | 148.81908 | 39272 ft | 466 kts | 47° |
| 2026-05-06 00:08 | -35.06475 | 148.88171 | 39268 ft | 465 kts | 47° |
| 2026-05-06 00:08 | -35.02527 | 148.94372 | 39282 ft | 467 kts | 47° |
| 2026-05-06 00:09 | -34.98543 | 149.00637 | 39281 ft | 467 kts | 47° |
| 2026-05-06 00:09 | -34.94568 | 149.06893 | 39278 ft | 467 kts | 47° |
| 2026-05-06 00:10 | -34.90585 | 149.13148 | 39261 ft | 467 kts | 47° |
| 2026-05-06 00:10 | -34.86597 | 149.19377 | 39273 ft | 467 kts | 47° |
| 2026-05-06 00:11 | -34.82620 | 149.25629 | 39200 ft | 463 kts | 47° |
| 2026-05-06 00:11 | -34.80648 | 149.28698 | 38744 ft | 461 kts | 47° |
| 2026-05-06 00:11 | -34.78675 | 149.31766 | 38097 ft | 460 kts | 47° |
| 2026-05-06 00:11 | -34.76697 | 149.34844 | 37426 ft | 462 kts | 48° |
| 2026-05-06 00:12 | -34.74723 | 149.37947 | 36708 ft | 465 kts | 50° |
| 2026-05-06 00:12 | -34.73007 | 149.41291 | 36028 ft | 470 kts | 59° |
| 2026-05-06 00:12 | -34.71477 | 149.44804 | 35365 ft | 470 kts | 59° |
| 2026-05-06 00:12 | -34.69959 | 149.48327 | 34660 ft | 471 kts | 60° |
| 2026-05-06 00:13 | -34.68429 | 149.51847 | 33850 ft | 470 kts | 60° |
| 2026-05-06 00:13 | -34.66908 | 149.55347 | 33012 ft | 469 kts | 60° |
| 2026-05-06 00:13 | -34.65377 | 149.58849 | 32200 ft | 470 kts | 60° |
| 2026-05-06 00:13 | -34.63843 | 149.62356 | 31451 ft | 470 kts | 60° |
| 2026-05-06 00:14 | -34.62309 | 149.65853 | 30766 ft | 468 kts | 60° |
| 2026-05-06 00:14 | -34.60785 | 149.69337 | 30084 ft | 466 kts | 60° |
| 2026-05-06 00:14 | -34.59270 | 149.72789 | 29336 ft | 463 kts | 60° |
| 2026-05-06 00:14 | -34.57755 | 149.76234 | 28643 ft | 458 kts | 60° |
| 2026-05-06 00:15 | -34.56258 | 149.79621 | 27997 ft | 453 kts | 60° |
| 2026-05-06 00:15 | -34.54777 | 149.82979 | 27353 ft | 450 kts | 60° |
| 2026-05-06 00:15 | -34.53310 | 149.86315 | 26676 ft | 447 kts | 60° |
| 2026-05-06 00:15 | -34.51845 | 149.89629 | 26041 ft | 444 kts | 60° |
| 2026-05-06 00:16 | -34.50394 | 149.92922 | 25408 ft | 441 kts | 60° |
| 2026-05-06 00:16 | -34.48956 | 149.96201 | 24757 ft | 439 kts | 60° |
| 2026-05-06 00:16 | -34.47532 | 149.99467 | 24108 ft | 437 kts | 60° |
| 2026-05-06 00:16 | -34.46129 | 150.02662 | 23417 ft | 435 kts | 60° |
| 2026-05-06 00:17 | -34.44706 | 150.05863 | 22717 ft | 428 kts | 60° |
| 2026-05-06 00:17 | -34.43303 | 150.09007 | 22037 ft | 422 kts | 60° |
| 2026-05-06 00:17 | -34.41910 | 150.12104 | 21381 ft | 416 kts | 60° |
| 2026-05-06 00:17 | -34.40541 | 150.15165 | 20757 ft | 410 kts | 60° |
| 2026-05-06 00:18 | -34.39198 | 150.18179 | 20169 ft | 403 kts | 61° |
| 2026-05-06 00:18 | -34.37881 | 150.21142 | 19617 ft | 397 kts | 61° |
| 2026-05-06 00:18 | -34.36572 | 150.24082 | 19086 ft | 400 kts | 61° |
| 2026-05-06 00:18 | -34.35256 | 150.27036 | 18598 ft | 396 kts | 61° |
| 2026-05-06 00:19 | -34.33961 | 150.29933 | 18025 ft | 389 kts | 60° |
| 2026-05-06 00:19 | -34.32686 | 150.32786 | 17478 ft | 382 kts | 60° |
| 2026-05-06 00:19 | -34.31434 | 150.35592 | 16933 ft | 376 kts | 60° |
| 2026-05-06 00:19 | -34.30193 | 150.38375 | 16411 ft | 376 kts | 60° |
| 2026-05-06 00:20 | -34.28957 | 150.41155 | 15921 ft | 376 kts | 60° |
| 2026-05-06 00:20 | -34.27711 | 150.43940 | 15440 ft | 376 kts | 60° |
| 2026-05-06 00:20 | -34.26461 | 150.46722 | 14951 ft | 377 kts | 60° |
| 2026-05-06 00:20 | -34.25208 | 150.49511 | 14436 ft | 378 kts | 60° |
| 2026-05-06 00:21 | -34.23957 | 150.52301 | 13923 ft | 378 kts | 59° |
| 2026-05-06 00:21 | -34.22712 | 150.55083 | 13386 ft | 372 kts | 60° |
| 2026-05-06 00:21 | -34.21493 | 150.57809 | 12883 ft | 365 kts | 60° |
| 2026-05-06 00:21 | -34.20296 | 150.60467 | 12403 ft | 357 kts | 60° |
| 2026-05-06 00:22 | -34.19120 | 150.63079 | 11934 ft | 350 kts | 60° |
| 2026-05-06 00:22 | -34.17970 | 150.65645 | 11485 ft | 344 kts | 60° |
| 2026-05-06 00:22 | -34.16839 | 150.68166 | 11103 ft | 337 kts | 60° |
| 2026-05-06 00:22 | -34.15742 | 150.70613 | 10864 ft | 326 kts | 60° |
| 2026-05-06 00:23 | -34.14696 | 150.72940 | 10691 ft | 313 kts | 60° |
| 2026-05-06 00:23 | -34.13675 | 150.75207 | 10548 ft | 301 kts | 60° |
| 2026-05-06 00:23 | -34.12686 | 150.77408 | 10178 ft | 298 kts | 60° |
| 2026-05-06 00:23 | -34.11691 | 150.79610 | 9716 ft | 298 kts | 60° |
| 2026-05-06 00:24 | -34.10706 | 150.81779 | 9357 ft | 293 kts | 60° |
| 2026-05-06 00:24 | -34.09730 | 150.83938 | 8976 ft | 290 kts | 60° |
| 2026-05-06 00:24 | -34.08775 | 150.86044 | 8680 ft | 284 kts | 58° |
| 2026-05-06 00:24 | -34.07480 | 150.87793 | 8387 ft | 279 kts | 34° |
| 2026-05-06 00:25 | -34.05745 | 150.88761 | 8118 ft | 275 kts | 16° |
| 2026-05-06 00:25 | -34.03903 | 150.89342 | 7852 ft | 273 kts | 13° |
| 2026-05-06 00:25 | -34.02061 | 150.89866 | 7602 ft | 271 kts | 13° |
| 2026-05-06 00:25 | -34.00225 | 150.90379 | 7355 ft | 270 kts | 13° |
| 2026-05-06 00:26 | -33.98406 | 150.90884 | 7125 ft | 268 kts | 13° |
| 2026-05-06 00:26 | -33.96591 | 150.91383 | 6930 ft | 267 kts | 13° |
| 2026-05-06 00:26 | -33.94786 | 150.91875 | 6749 ft | 265 kts | 13° |
| 2026-05-06 00:26 | -33.92990 | 150.92359 | 6579 ft | 264 kts | 13° |
| 2026-05-06 00:27 | -33.91200 | 150.92839 | 6411 ft | 263 kts | 13° |
| 2026-05-06 00:27 | -33.89420 | 150.93313 | 6261 ft | 262 kts | 13° |
| 2026-05-06 00:27 | -33.87640 | 150.93785 | 6107 ft | 262 kts | 13° |
| 2026-05-06 00:27 | -33.85864 | 150.94255 | 5980 ft | 261 kts | 13° |
| 2026-05-06 00:28 | -33.84087 | 150.94722 | 5974 ft | 261 kts | 13° |
| 2026-05-06 00:28 | -33.82314 | 150.95188 | 5984 ft | 261 kts | 12° |
| 2026-05-06 00:28 | -33.80535 | 150.95658 | 6003 ft | 261 kts | 13° |
| 2026-05-06 00:28 | -33.78764 | 150.96125 | 5926 ft | 261 kts | 13° |
| 2026-05-06 00:29 | -33.76990 | 150.96592 | 5702 ft | 260 kts | 13° |
| 2026-05-06 00:29 | -33.75248 | 150.97079 | 5428 ft | 254 kts | 19° |
| 2026-05-06 00:29 | -33.73769 | 150.98167 | 5137 ft | 249 kts | 45° |
| 2026-05-06 00:29 | -33.72872 | 150.99914 | 4833 ft | 246 kts | 71° |
| 2026-05-06 00:30 | -33.72561 | 151.01921 | 4543 ft | 244 kts | 82° |
| 2026-05-06 00:30 | -33.72375 | 151.03929 | 4278 ft | 239 kts | 82° |
| 2026-05-06 00:30 | -33.72204 | 151.05873 | 4055 ft | 235 kts | 83° |
| 2026-05-06 00:30 | -33.72209 | 151.07770 | 3970 ft | 222 kts | 102° |
| 2026-05-06 00:31 | -33.72929 | 151.09324 | 3969 ft | 212 kts | 133° |
| 2026-05-06 00:31 | -33.74093 | 151.10424 | 3991 ft | 213 kts | 142° |
| 2026-05-06 00:31 | -33.75143 | 151.11303 | 3971 ft | 209 kts | 142° |
| 2026-05-06 00:31 | -33.76337 | 151.12291 | 3676 ft | 206 kts | 143° |
| 2026-05-06 00:32 | -33.77451 | 151.13207 | 3553 ft | 190 kts | 143° |
| 2026-05-06 00:32 | -33.78527 | 151.14087 | 3316 ft | 184 kts | 142° |
| 2026-05-06 00:32 | -33.79676 | 151.14806 | 3053 ft | 189 kts | 158° |
| 2026-05-06 00:32 | -33.80948 | 151.15205 | 2832 ft | 189 kts | 167° |
| 2026-05-06 00:33 | -33.82222 | 151.15520 | 2598 ft | 183 kts | 166° |
| 2026-05-06 00:33 | -33.83413 | 151.15825 | 2402 ft | 166 kts | 166° |
| 2026-05-06 00:33 | -33.84495 | 151.16104 | 2174 ft | 153 kts | 166° |
| 2026-05-06 00:33 | -33.85476 | 151.16358 | 1957 ft | 139 kts | 166° |
| 2026-05-06 00:34 | -33.86353 | 151.16587 | 1784 ft | 125 kts | 166° |
| 2026-05-06 00:34 | -33.87196 | 151.16805 | 1631 ft | 123 kts | 167° |
| 2026-05-06 00:34 | -33.88038 | 151.17024 | 1458 ft | 124 kts | 167° |
| 2026-05-06 00:34 | -33.88875 | 151.17242 | 1293 ft | 123 kts | 168° |
| 2026-05-06 00:35 | -33.89710 | 151.17459 | 1131 ft | 122 kts | 167° |
| 2026-05-06 00:35 | -33.90540 | 151.17675 | 958 ft | 123 kts | 168° |
| 2026-05-06 00:35 | -33.91381 | 151.17893 | 796 ft | 124 kts | 169° |
| 2026-05-06 00:35 | -33.92240 | 151.18110 | 642 ft | 127 kts | 170° |
| 2026-05-06 00:36 | -33.93099 | 151.18343 | 485 ft | 127 kts | 168° |
| 2026-05-06 00:36 | -33.93970 | 151.18577 | 311 ft | 129 kts | 171° |
| 2026-05-06 00:36 | -33.94847 | 151.18797 | 123 ft | 129 kts | 170° |
| 2026-05-06 00:36 | -33.95131 | 151.18873 | 63 ft | 129 kts | 170° |
| 2026-05-06 00:37 | -33.95660 | 151.19011 | 34 ft | 121 kts | 170° |
| 2026-05-06 00:37 | -33.95927 | 151.19078 | 33 ft | 113 kts | 168° |
| 2026-05-06 00:37 | -33.96392 | 151.19198 | 30 ft | 90 kts | 169° |
| 2026-05-06 00:37 | -33.96809 | 151.19292 | 29 ft | 42 kts | 179° |
| 2026-05-06 00:38 | -33.96996 | 151.19273 | 32 ft | 16 kts | 191° |
| 2026-05-06 00:38 | -33.97100 | 151.19238 | 34 ft | 15 kts | 222° |
| 2026-05-06 00:38 | -33.97083 | 151.19131 | 36 ft | 18 kts | 346° |
| 2026-05-06 00:38 | -33.96952 | 151.19099 | 36 ft | 20 kts | 349° |
| 2026-05-06 00:39 | -33.96804 | 151.19064 | 35 ft | 23 kts | 356° |
| 2026-05-06 00:39 | -33.96638 | 151.19064 | 35 ft | 25 kts | 345° |
| 2026-05-06 00:39 | -33.96460 | 151.19014 | 35 ft | 27 kts | 349° |
| 2026-05-06 00:39 | -33.96265 | 151.18969 | 36 ft | 30 kts | 349° |
| 2026-05-06 00:40 | -33.96056 | 151.18917 | 35 ft | 32 kts | 347° |
| 2026-05-06 00:40 | -33.95838 | 151.18859 | 35 ft | 33 kts | 347° |
| 2026-05-06 00:40 | -33.95611 | 151.18802 | 35 ft | 34 kts | 349° |
| 2026-05-06 00:40 | -33.95384 | 151.18741 | 35 ft | 33 kts | 347° |
| 2026-05-06 00:41 | -33.95213 | 151.18651 | 35 ft | 22 kts | 316° |
| 2026-05-06 00:41 | -33.95116 | 151.18507 | 36 ft | 23 kts | 279° |
| 2026-05-06 00:41 | -33.95136 | 151.18312 | 36 ft | 24 kts | 258° |
| 2026-05-06 00:41 | -33.95169 | 151.18117 | 36 ft | 20 kts | 257° |
| 2026-05-06 00:42 | -33.95171 | 151.17969 | 36 ft | 19 kts | 327° |
| 2026-05-06 00:42 | -33.95043 | 151.17929 | 36 ft | 20 kts | 347° |
| 2026-05-06 00:42 | -33.94944 | 151.17904 | 35 ft | 21 kts | 349° |
| 2026-05-06 00:43 | -33.94881 | 151.17889 | 35 ft | 21 kts | 348° |
| 2026-05-06 00:43 | -33.94733 | 151.17849 | 35 ft | 22 kts | 347° |
| 2026-05-06 00:44 | -33.94577 | 151.17808 | 35 ft | 24 kts | 347° |
| 2026-05-06 00:44 | -33.94419 | 151.17763 | 35 ft | 23 kts | 346° |
| 2026-05-06 00:44 | -33.94257 | 151.17713 | 35 ft | 25 kts | 346° |
| 2026-05-06 00:44 | -33.94087 | 151.17663 | 34 ft | 26 kts | 346° |
| 2026-05-06 00:45 | -33.93910 | 151.17613 | 34 ft | 27 kts | 347° |
| 2026-05-06 00:45 | -33.93754 | 151.17574 | 34 ft | 20 kts | 348° |
| 2026-05-06 00:45 | -33.93650 | 151.17546 | 34 ft | 16 kts | 348° |
| 2026-05-06 00:45 | -33.93540 | 151.17519 | 35 ft | 16 kts | 348° |
| 2026-05-06 00:46 | -33.93468 | 151.17512 | 35 ft | 5 kts | 31° |
| 2026-05-06 00:46 | -33.93463 | 151.17519 | 35 ft | 3 kts | 59° |
| 2026-05-06 00:46 | -33.93462 | 151.17569 | 35 ft | 5 kts | 124° |
| 2026-05-06 00:46 | -33.93495 | 151.17593 | 35 ft | 6 kts | 129° |
| 2026-05-06 00:47 | -33.93506 | 151.17636 | 35 ft | 3 kts | 99° |
| 2026-05-06 00:47 | -33.93509 | 151.17657 | 35 ft | 3 kts | 99° |
| 2026-05-06 00:47 | -33.93510 | 151.17666 | 35 ft | 5 kts | 99° |
| 2026-05-06 00:47 | -33.93513 | 151.17689 | 35 ft | 0 kts | 100° |